Time;durP1;ratioP1;P1;durP2;ratioP2;P2;SDS_P1;SDS_P2;PMS_P1;PMS_P2;Temp;Humidity;BMP_temperature;BMP_pressure;BME280_temperature;BME280_humidity;BME280_pressure;Samples;Min_cycle;Max_cycle;Signal;HPM_P1;HPM_P2
2023/04/28 00:03:13;;;;;;;9.63;9.33;;;10.30;99.90;;;;;;5121642;27;20236;-83
2023/04/28 00:08:30;;;;;;;9.50;9.20;;;10.20;99.90;;;;;;5121119;27;20214;-83
2023/04/28 00:11:00;;;;;;;9.80;9.50;;;10.10;99.90;;;;;;5122018;27;20197;-84
2023/04/28 00:13:38;;;;;;;9.77;9.47;;;10.10;99.90;;;;;;5121896;27;20206;-83
2023/04/28 00:16:22;;;;;;;9.80;9.50;;;10.00;99.90;;;;;;5122048;27;20272;-84
2023/04/28 00:18:54;;;;;;;9.57;9.27;;;10.00;99.90;;;;;;5121547;27;20261;-84
2023/04/28 00:21:32;;;;;;;9.80;9.50;;;9.90;99.90;;;;;;5121879;27;20206;-84
2023/04/28 00:24:08;;;;;;;9.33;9.03;;;9.90;99.90;;;;;;5121814;27;20209;-85
2023/04/28 00:26:48;;;;;;;9.23;8.93;;;9.90;99.90;;;;;;5121621;27;20272;-85
2023/04/28 00:29:19;;;;;;;9.47;9.17;;;9.90;99.90;;;;;;5114510;27;20233;-86
2023/04/28 00:31:56;;;;;;;9.60;9.30;;;9.90;99.90;;;;;;5115463;27;20206;-86
2023/04/28 00:34:25;;;;;;;9.30;9.00;;;9.90;99.90;;;;;;5108048;27;20237;-86
2023/04/28 00:37:02;;;;;;;9.60;9.30;;;9.90;99.90;;;;;;5103427;28;20221;-86
2023/04/28 00:39:33;;;;;;;9.60;9.30;;;9.90;99.90;;;;;;5103101;28;20236;-86
2023/04/28 00:42:03;;;;;;;9.47;9.17;;;9.80;99.90;;;;;;5102274;28;20272;-86
2023/04/28 00:44:31;;;;;;;9.40;9.10;;;9.80;99.90;;;;;;5103435;28;20359;-86
2023/04/28 00:47:00;;;;;;;9.87;9.57;;;9.80;99.90;;;;;;5102419;28;20237;-86
2023/04/28 00:49:32;;;;;;;9.60;9.30;;;9.70;99.90;;;;;;5100335;28;20241;-85
2023/04/28 00:52:08;;;;;;;9.50;9.20;;;9.70;99.90;;;;;;5100810;28;20233;-86
2023/04/28 00:54:39;;;;;;;9.83;9.53;;;9.70;99.90;;;;;;5100874;28;20252;-85
2023/04/28 00:57:15;;;;;;;9.60;9.30;;;9.70;99.90;;;;;;5101183;28;20299;-86
2023/04/28 00:59:45;;;;;;;9.90;9.60;;;9.70;99.90;;;;;;5107244;28;20220;-84
2023/04/28 01:02:17;;;;;;;9.60;9.30;;;9.70;99.90;;;;;;5119791;27;20220;-83
2023/04/28 01:04:46;;;;;;;9.80;9.50;;;9.70;99.90;;;;;;5119886;27;20221;-84
2023/04/28 01:07:30;;;;;;;9.80;9.50;;;9.70;99.90;;;;;;5110479;27;20239;-87
2023/04/28 01:10:10;;;;;;;9.80;9.50;;;9.70;99.90;;;;;;5115270;28;20220;-85
2023/04/28 01:12:50;;;;;;;9.63;9.33;;;9.60;99.90;;;;;;5111750;28;20312;-85
2023/04/28 01:15:20;;;;;;;9.70;9.40;;;9.60;99.90;;;;;;5105920;28;20237;-85
2023/04/28 01:17:49;;;;;;;9.63;9.33;;;9.60;99.90;;;;;;5103785;28;20234;-85
2023/04/28 01:23:13;;;;;;;9.70;9.40;;;9.60;99.90;;;;;;5103140;28;20279;-86
2023/04/28 01:25:53;;;;;;;9.70;9.40;;;9.60;99.90;;;;;;5110637;28;20229;-83
2023/04/28 01:28:23;;;;;;;9.80;9.50;;;9.60;99.90;;;;;;5115277;27;20238;-85
2023/04/28 01:33:39;;;;;;;9.60;9.30;;;9.60;99.90;;;;;;5116609;27;20198;-85
2023/04/28 01:36:17;;;;;;;9.60;9.30;;;9.60;99.90;;;;;;5101089;28;20225;-85
2023/04/28 01:38:58;;;;;;;9.90;9.60;;;9.60;99.90;;;;;;5100868;28;20229;-85
2023/04/28 01:41:40;;;;;;;9.40;9.10;;;9.60;99.90;;;;;;5103254;28;20217;-85
2023/04/28 01:44:13;;;;;;;9.57;9.27;;;9.60;99.90;;;;;;5104127;28;20229;-86
2023/04/28 01:46:48;;;;;;;9.63;9.33;;;9.60;99.90;;;;;;5103350;28;20225;-85
2023/04/28 01:52:07;;;;;;;9.50;9.20;;;9.60;99.90;;;;;;5102449;28;20232;-85
2023/04/28 01:54:36;;;;;;;9.63;9.33;;;9.70;99.90;;;;;;5110313;28;20252;-86
2023/04/28 01:59:54;;;;;;;9.60;9.30;;;9.60;99.90;;;;;;5110309;28;20247;-86
2023/04/28 02:02:38;;;;;;;9.27;8.97;;;9.60;99.90;;;;;;5106551;28;20229;-85
2023/04/28 02:05:10;;;;;;;9.30;9.00;;;9.60;99.90;;;;;;5111638;28;20214;-86
2023/04/28 02:07:39;;;;;;;9.50;9.20;;;9.70;99.90;;;;;;5104984;28;20229;-85
2023/04/28 02:15:51;;;;;;;9.70;9.40;;;9.70;99.90;;;;;;5100935;28;20237;-86
2023/04/28 02:18:19;;;;;;;9.80;9.50;;;9.60;99.90;;;;;;5103237;28;20260;-85
2023/04/28 02:20:48;;;;;;;9.80;9.50;;;9.60;99.90;;;;;;5103649;28;20225;-86
2023/04/28 02:23:19;;;;;;;9.83;9.53;;;9.60;99.90;;;;;;5103236;28;20238;-86
2023/04/28 02:25:47;;;;;;;9.90;9.60;;;9.60;99.90;;;;;;5105347;28;20229;-86
2023/04/28 02:28:24;;;;;;;9.70;9.40;;;9.60;99.90;;;;;;5117891;27;20290;-85
2023/04/28 02:30:54;;;;;;;9.97;9.67;;;9.60;99.90;;;;;;5119608;28;20225;-86
2023/04/28 02:36:11;;;;;;;9.80;9.50;;;9.60;99.90;;;;;;5107645;28;21070;-85
2023/04/28 02:38:41;;;;;;;10.23;9.93;;;9.60;99.90;;;;;;5107500;28;20236;-86
2023/04/28 02:41:14;;;;;;;9.60;9.30;;;9.60;99.90;;;;;;5107176;28;20232;-85
2023/04/28 02:43:47;;;;;;;9.60;9.30;;;9.60;99.90;;;;;;5106476;28;20225;-85
2023/04/28 02:46:27;;;;;;;9.57;9.27;;;9.60;99.90;;;;;;5105831;28;20325;-85
2023/04/28 02:51:51;;;;;;;9.70;9.40;;;9.70;99.90;;;;;;5102858;28;20225;-85
2023/04/28 02:54:31;;;;;;;9.67;9.37;;;9.70;99.90;;;;;;5104915;28;20217;-85
2023/04/28 02:57:00;;;;;;;9.87;9.57;;;9.70;99.90;;;;;;5104011;28;20257;-84
2023/04/28 02:59:31;;;;;;;9.80;9.50;;;9.70;99.90;;;;;;5103952;28;20229;-85
2023/04/28 03:01:59;;;;;;;9.87;9.57;;;9.70;99.90;;;;;;5105038;28;20233;-85
2023/04/28 03:04:27;;;;;;;10.00;9.70;;;9.70;99.90;;;;;;5105139;28;20226;-86
2023/04/28 03:06:57;;;;;;;10.07;9.77;;;9.80;99.90;;;;;;5103958;28;20218;-85
2023/04/28 03:09:28;;;;;;;9.77;9.47;;;9.80;99.90;;;;;;5104848;28;20229;-86
2023/04/28 03:11:59;;;;;;;9.80;9.50;;;9.80;99.90;;;;;;5104612;28;20260;-85
2023/04/28 03:14:28;;;;;;;9.90;9.60;;;9.80;99.90;;;;;;5105479;28;20295;-86
2023/04/28 03:16:57;;;;;;;9.90;9.60;;;9.90;99.90;;;;;;5103688;28;20237;-85
2023/04/28 03:19:34;;;;;;;9.63;9.33;;;9.90;99.90;;;;;;5102046;28;20256;-85
2023/04/28 03:22:03;;;;;;;9.70;9.40;;;9.90;99.90;;;;;;5103414;28;20316;-85
2023/04/28 03:27:22;;;;;;;9.67;9.37;;;9.90;99.90;;;;;;5113759;28;20289;-85
2023/04/28 03:32:39;;;;;;;9.37;9.07;;;9.90;99.90;;;;;;5113491;28;20249;-85
2023/04/28 03:37:55;;;;;;;9.30;9.00;;;9.90;99.90;;;;;;5107144;28;20236;-85
2023/04/28 03:43:12;;;;;;;9.40;9.10;;;10.00;99.90;;;;;;5103174;28;20218;-85
2023/04/28 03:45:50;;;;;;;9.53;9.23;;;10.00;99.90;;;;;;5104274;28;20233;-86
2023/04/28 03:48:29;;;;;;;9.57;9.27;;;10.10;99.90;;;;;;5103902;28;20235;-85
2023/04/28 03:50:58;;;;;;;9.60;9.30;;;10.10;99.90;;;;;;5104952;28;20221;-86
2023/04/28 03:53:26;;;;;;;9.70;9.40;;;10.20;99.90;;;;;;5104651;28;20275;-86
2023/04/28 03:55:56;;;;;;;9.70;9.40;;;10.20;99.90;;;;;;5104071;28;20244;-85
2023/04/28 03:58:24;;;;;;;10.00;9.70;;;10.20;99.90;;;;;;5106491;27;20229;-83
2023/04/28 04:01:14;;;;;;;9.97;9.67;;;10.30;99.90;;;;;;5120556;27;20277;-83
2023/04/28 04:06:31;;;;;;;10.40;10.10;;;10.30;99.90;;;;;;5102819;28;20222;-85
2023/04/28 04:08:59;;;;;;;10.30;10.00;;;10.30;99.90;;;;;;5100950;28;20233;-85
2023/04/28 04:11:32;;;;;;;9.80;9.50;;;10.30;99.90;;;;;;5101735;28;20230;-85
2023/04/28 04:14:13;;;;;;;10.30;10.00;;;10.30;99.90;;;;;;5101300;28;20225;-86
2023/04/28 04:16:54;;;;;;;10.43;10.13;;;10.40;99.90;;;;;;5100839;28;20237;-85
2023/04/28 04:19:27;;;;;;;10.50;10.20;;;10.40;99.90;;;;;;5101594;28;20229;-86
2023/04/28 04:21:59;;;;;;;10.30;10.00;;;10.40;99.90;;;;;;5102426;28;20234;-85
2023/04/28 04:24:28;;;;;;;10.30;10.00;;;10.40;99.90;;;;;;5105090;28;20252;-85
2023/04/28 04:27:00;;;;;;;10.17;9.87;;;10.50;99.90;;;;;;5111169;28;20214;-86
2023/04/28 04:29:30;;;;;;;9.70;9.40;;;10.50;99.90;;;;;;5109387;28;20221;-85
2023/04/28 04:32:00;;;;;;;9.90;9.60;;;10.50;99.90;;;;;;5104336;28;20232;-85
2023/04/28 04:34:37;;;;;;;10.00;9.70;;;10.50;99.90;;;;;;5109117;28;20256;-85
2023/04/28 04:37:06;;;;;;;9.47;9.17;;;10.60;99.90;;;;;;5116932;28;20233;-85
2023/04/28 04:39:34;;;;;;;9.50;9.20;;;10.60;99.90;;;;;;5116029;28;20278;-85
2023/04/28 04:42:05;;;;;;;9.50;9.20;;;10.50;99.90;;;;;;5106442;28;20255;-85
2023/04/28 04:44:36;;;;;;;9.40;9.10;;;10.50;99.90;;;;;;5106367;28;20243;-85
2023/04/28 04:47:11;;;;;;;9.67;9.37;;;10.60;99.90;;;;;;5106047;28;20243;-85
2023/04/28 04:49:44;;;;;;;9.70;9.40;;;10.50;99.90;;;;;;5106807;28;20236;-85
2023/04/28 04:52:11;;;;;;;10.17;9.87;;;10.50;99.90;;;;;;5106654;28;20275;-84
2023/04/28 04:54:41;;;;;;;10.50;10.20;;;10.50;99.90;;;;;;5109584;28;20293;-84
2023/04/28 04:57:09;;;;;;;10.40;10.10;;;10.40;99.90;;;;;;5119889;27;20232;-80
2023/04/28 04:59:36;;;;;;;10.27;9.97;;;10.40;99.90;;;;;;5148654;22;20229;-82
2023/04/28 05:02:05;;;;;;;10.20;9.90;;;10.40;99.90;;;;;;5130618;28;20249;-83
2023/04/28 05:04:32;;;;;;;9.97;9.67;;;10.40;99.90;;;;;;5116564;28;20285;-82
2023/04/28 05:07:00;;;;;;;10.33;10.03;;;10.40;99.90;;;;;;5116227;28;20324;-82
2023/04/28 05:09:28;;;;;;;10.47;10.17;;;10.40;99.90;;;;;;5110412;28;20238;-82
2023/04/28 05:11:56;;;;;;;10.27;9.97;;;10.30;99.90;;;;;;5096518;28;20242;-82
2023/04/28 05:14:24;;;;;;;9.90;9.60;;;10.40;99.90;;;;;;5099489;28;20249;-82
2023/04/28 05:16:51;;;;;;;9.90;9.60;;;10.30;99.90;;;;;;5099965;28;20289;-82
2023/04/28 05:19:20;;;;;;;10.60;10.30;;;10.40;99.90;;;;;;5099342;28;20222;-83
2023/04/28 05:21:48;;;;;;;9.67;9.37;;;10.40;99.90;;;;;;5099620;28;20254;-82
2023/04/28 05:24:15;;;;;;;9.80;9.50;;;10.40;99.90;;;;;;5100260;28;20229;-82
2023/04/28 05:26:43;;;;;;;9.90;9.60;;;10.40;99.90;;;;;;5100049;28;20221;-82
2023/04/28 05:29:11;;;;;;;10.00;9.70;;;10.40;99.90;;;;;;5099535;28;20230;-83
2023/04/28 05:31:38;;;;;;;10.10;9.80;;;10.50;99.90;;;;;;5099079;28;20256;-80
2023/04/28 05:34:06;;;;;;;9.80;9.50;;;10.50;99.90;;;;;;5100914;28;20234;-80
2023/04/28 05:36:34;;;;;;;9.90;9.60;;;10.50;99.90;;;;;;5100065;28;20256;-80
2023/04/28 05:39:02;;;;;;;10.40;10.10;;;10.50;99.90;;;;;;5099205;28;20400;-80
2023/04/28 05:41:29;;;;;;;10.10;9.80;;;10.50;99.90;;;;;;5101174;28;20228;-80
2023/04/28 05:43:57;;;;;;;10.00;9.70;;;10.50;99.90;;;;;;5101037;28;20254;-80
2023/04/28 05:46:24;;;;;;;10.03;9.73;;;10.60;99.90;;;;;;5100536;28;20273;-80
2023/04/28 05:48:52;;;;;;;9.83;9.53;;;10.70;99.90;;;;;;5102078;28;20226;-80
2023/04/28 05:51:21;;;;;;;10.20;9.90;;;10.70;99.90;;;;;;5107680;28;20222;-81
2023/04/28 05:53:50;;;;;;;9.93;9.63;;;10.80;99.90;;;;;;5109146;28;20233;-80
2023/04/28 05:56:18;;;;;;;9.60;9.30;;;10.70;99.90;;;;;;5100525;28;20240;-81
2023/04/28 05:58:46;;;;;;;9.60;9.30;;;10.70;99.90;;;;;;5099753;28;20222;-80
2023/04/28 06:01:13;;;;;;;9.30;9.00;;;10.70;99.90;;;;;;5099138;28;20241;-80
2023/04/28 06:03:41;;;;;;;9.50;9.20;;;10.60;99.90;;;;;;5095034;28;20226;-81
2023/04/28 06:06:09;;;;;;;9.30;9.00;;;10.60;99.90;;;;;;5092625;28;20242;-80
2023/04/28 06:08:37;;;;;;;9.30;9.00;;;10.60;99.90;;;;;;5110345;28;20323;-80
2023/04/28 06:11:06;;;;;;;9.80;9.50;;;10.60;99.90;;;;;;5115106;28;20320;-80
2023/04/28 06:13:33;;;;;;;9.70;9.40;;;10.60;99.90;;;;;;5115603;28;20245;-80
2023/04/28 06:16:01;;;;;;;10.00;9.70;;;10.70;99.90;;;;;;5113789;28;20289;-81
2023/04/28 06:18:31;;;;;;;10.23;9.93;;;10.60;99.90;;;;;;5116501;28;20290;-80
2023/04/28 06:20:58;;;;;;;10.00;9.70;;;10.60;99.90;;;;;;5116363;28;20233;-83
2023/04/28 06:23:26;;;;;;;10.03;9.73;;;10.60;99.90;;;;;;5102561;28;20312;-83
2023/04/28 06:25:53;;;;;;;10.30;10.00;;;10.60;99.90;;;;;;5109374;28;20289;-81
2023/04/28 06:28:22;;;;;;;9.90;9.60;;;10.60;99.90;;;;;;5109454;28;20233;-83
2023/04/28 06:30:50;;;;;;;10.17;9.87;;;10.60;99.90;;;;;;5110540;28;20296;-84
2023/04/28 06:33:17;;;;;;;10.20;9.90;;;10.60;99.90;;;;;;5115075;28;20221;-80
2023/04/28 06:35:45;;;;;;;9.80;9.50;;;10.50;99.90;;;;;;5110332;28;20285;-81
2023/04/28 06:38:12;;;;;;;9.87;9.57;;;10.60;99.90;;;;;;5109538;28;20312;-80
2023/04/28 06:40:40;;;;;;;10.07;9.77;;;10.60;99.90;;;;;;5098537;28;20245;-82
2023/04/28 06:43:07;;;;;;;9.60;9.30;;;10.60;99.90;;;;;;5101795;28;20230;-81
2023/04/28 06:45:36;;;;;;;10.10;9.80;;;10.50;99.90;;;;;;5104812;28;20240;-80
2023/04/28 06:48:04;;;;;;;9.73;9.43;;;10.60;99.90;;;;;;5107395;28;20281;-81
2023/04/28 06:50:32;;;;;;;10.10;9.80;;;10.60;99.90;;;;;;5109479;28;20261;-80
2023/04/28 06:53:00;;;;;;;10.00;9.70;;;10.60;99.90;;;;;;5090796;28;20313;-81
2023/04/28 06:55:27;;;;;;;10.17;9.87;;;10.60;99.90;;;;;;5096764;28;20591;-80
2023/04/28 06:57:55;;;;;;;9.93;9.63;;;10.60;99.90;;;;;;5098765;28;20265;-80
2023/04/28 07:00:23;;;;;;;9.93;9.63;;;10.60;99.90;;;;;;5087883;28;20711;-80
2023/04/28 07:02:51;;;;;;;9.90;9.60;;;10.50;99.90;;;;;;5095663;28;20253;-81
2023/04/28 07:05:19;;;;;;;9.93;9.63;;;10.50;99.90;;;;;;5087766;28;20298;-83
2023/04/28 07:07:47;;;;;;;9.70;9.40;;;10.40;99.90;;;;;;5098853;28;20283;-80
2023/04/28 07:10:15;;;;;;;9.73;9.43;;;10.40;99.90;;;;;;5095669;28;20269;-82
2023/04/28 07:12:43;;;;;;;9.60;9.30;;;10.40;99.90;;;;;;5088497;28;20232;-81
2023/04/28 07:15:11;;;;;;;9.70;9.40;;;10.40;99.90;;;;;;5087944;28;20238;-81
2023/04/28 07:17:39;;;;;;;9.80;9.50;;;10.30;99.90;;;;;;5088721;28;20242;-80
2023/04/28 07:20:09;;;;;;;9.80;9.50;;;10.30;99.90;;;;;;5086065;28;20295;-81
2023/04/28 07:22:37;;;;;;;10.00;9.70;;;10.20;99.90;;;;;;5087204;28;20285;-80
2023/04/28 07:25:05;;;;;;;9.77;9.47;;;10.20;99.90;;;;;;5087125;28;20321;-82
2023/04/28 07:27:33;;;;;;;9.77;9.47;;;10.20;99.90;;;;;;5088392;28;20215;-82
2023/04/28 07:30:01;;;;;;;10.20;9.90;;;10.10;99.90;;;;;;5087497;28;20261;-81
2023/04/28 07:32:28;;;;;;;9.73;9.43;;;10.10;99.90;;;;;;5088858;28;20303;-81
2023/04/28 07:34:56;;;;;;;9.80;9.50;;;10.10;99.90;;;;;;5087059;28;20249;-82
2023/04/28 07:37:25;;;;;;;9.77;9.47;;;10.00;99.90;;;;;;5084810;28;20294;-79
2023/04/28 07:39:53;;;;;;;10.00;9.70;;;10.00;99.90;;;;;;5099257;28;20292;-79
2023/04/28 07:42:20;;;;;;;9.40;9.10;;;10.00;99.90;;;;;;5108459;28;20253;-81
2023/04/28 07:44:47;;;;;;;9.70;9.40;;;10.00;99.90;;;;;;5103383;28;20222;-81
2023/04/28 07:47:15;;;;;;;9.87;9.57;;;9.90;99.90;;;;;;5097493;28;20285;-81
2023/04/28 07:49:43;;;;;;;10.10;9.80;;;10.00;99.90;;;;;;5104969;28;20368;-81
2023/04/28 07:52:15;;;;;;;9.73;9.43;;;9.90;99.90;;;;;;5087434;28;20252;-81
2023/04/28 07:54:49;;;;;;;9.90;9.60;;;9.90;99.90;;;;;;5084347;28;20218;-84
2023/04/28 07:57:16;;;;;;;9.53;9.23;;;9.90;99.90;;;;;;5083279;28;20241;-84
2023/04/28 07:59:46;;;;;;;9.70;9.40;;;9.90;99.90;;;;;;5083702;28;20337;-84
2023/04/28 08:02:14;;;;;;;9.30;9.00;;;9.90;99.90;;;;;;5084723;28;20313;-84
2023/04/28 08:04:43;;;;;;;9.40;9.10;;;9.90;99.90;;;;;;5082213;28;20229;-85
2023/04/28 08:07:12;;;;;;;9.10;8.80;;;9.80;99.90;;;;;;5094680;28;20264;-84
2023/04/28 08:09:46;;;;;;;9.00;8.70;;;9.80;99.90;;;;;;5093624;28;20290;-86
2023/04/28 08:12:15;;;;;;;8.57;8.37;;;9.80;99.90;;;;;;5082866;28;20229;-85
2023/04/28 08:14:42;;;;;;;8.60;8.40;;;9.80;99.90;;;;;;5082220;28;20253;-84
2023/04/28 08:17:10;;;;;;;8.43;8.23;;;9.80;99.90;;;;;;5081403;28;20497;-84
2023/04/28 08:19:38;;;;;;;8.73;8.53;;;9.80;99.90;;;;;;5081332;28;20234;-85
2023/04/28 08:22:06;;;;;;;8.33;8.13;;;9.80;99.90;;;;;;5080882;28;20288;-84
2023/04/28 08:24:35;;;;;;;8.30;8.10;;;9.80;99.90;;;;;;5085670;28;20321;-86
2023/04/28 08:27:03;;;;;;;8.70;8.50;;;9.80;99.90;;;;;;5080761;28;20229;-84
2023/04/28 08:29:32;;;;;;;8.37;8.17;;;9.90;99.90;;;;;;5080593;28;20264;-85
2023/04/28 08:32:00;;;;;;;8.50;8.30;;;9.90;99.90;;;;;;5082222;28;20234;-86
2023/04/28 08:34:28;;;;;;;8.20;8.00;;;9.90;99.90;;;;;;5081839;28;20308;-85
2023/04/28 08:36:57;;;;;;;8.47;8.27;;;10.00;99.90;;;;;;5079631;28;20230;-86
2023/04/28 08:39:25;;;;;;;8.13;7.93;;;9.90;99.90;;;;;;5080764;28;20264;-85
2023/04/28 08:41:53;;;;;;;8.10;7.90;;;10.00;99.90;;;;;;5083957;28;20297;-84
2023/04/28 08:44:22;;;;;;;8.30;8.10;;;10.00;99.90;;;;;;5089278;28;20277;-84
2023/04/28 08:46:57;;;;;;;8.40;8.20;;;10.00;99.90;;;;;;5082053;28;21001;-84
2023/04/28 08:49:35;;;;;;;8.37;8.17;;;10.00;99.90;;;;;;5088345;28;20343;-86
2023/04/28 08:52:03;;;;;;;8.53;8.33;;;10.00;99.90;;;;;;5085189;28;20267;-83
2023/04/28 08:54:36;;;;;;;8.17;7.97;;;10.10;99.90;;;;;;5084763;28;20320;-87
2023/04/28 08:57:04;;;;;;;8.40;8.20;;;10.00;99.90;;;;;;5084599;28;20228;-88
2023/04/28 08:59:32;;;;;;;8.60;8.40;;;10.00;99.90;;;;;;5084502;28;20238;-86
2023/04/28 09:02:03;;;;;;;8.50;8.30;;;10.00;99.90;;;;;;5084107;28;20218;-85
2023/04/28 09:04:30;;;;;;;8.60;8.40;;;10.00;99.90;;;;;;5084566;28;20241;-85
2023/04/28 09:06:58;;;;;;;8.20;8.00;;;10.00;99.90;;;;;;5085392;28;20312;-85
2023/04/28 09:09:29;;;;;;;8.20;8.00;;;10.00;99.90;;;;;;5084063;28;20244;-85
2023/04/28 09:11:59;;;;;;;8.50;8.30;;;10.10;99.90;;;;;;5090675;28;20226;-87
2023/04/28 09:14:28;;;;;;;8.73;8.53;;;10.00;99.90;;;;;;5085160;28;20226;-86
2023/04/28 09:16:56;;;;;;;8.60;8.40;;;10.10;99.90;;;;;;5085948;28;20236;-86
2023/04/28 09:19:25;;;;;;;8.40;8.20;;;10.10;99.90;;;;;;5082219;28;20242;-86
2023/04/28 09:21:55;;;;;;;8.40;8.20;;;10.10;99.90;;;;;;5087156;28;20297;-84
2023/04/28 09:24:33;;;;;;;8.13;7.93;;;10.20;99.90;;;;;;5101938;28;20233;-85
2023/04/28 09:27:03;;;;;;;8.40;8.20;;;10.30;99.90;;;;;;5091075;28;20232;-83
2023/04/28 09:29:31;;;;;;;8.50;8.30;;;10.30;99.90;;;;;;5102248;28;20278;-83
2023/04/28 09:32:17;;;;;;;8.47;8.27;;;10.30;99.90;;;;;;5104181;28;20240;-85
2023/04/28 09:34:49;;;;;;;8.23;8.03;;;10.30;99.90;;;;;;5103250;28;20281;-85
2023/04/28 09:37:18;;;;;;;8.03;7.83;;;10.30;99.90;;;;;;5104814;28;20293;-84
2023/04/28 09:39:48;;;;;;;8.10;7.90;;;10.40;99.90;;;;;;5107001;28;20301;-85
2023/04/28 09:42:36;;;;;;;8.23;8.03;;;10.40;99.90;;;;;;5109099;28;20226;-85
2023/04/28 09:45:06;;;;;;;8.20;8.00;;;10.40;99.90;;;;;;5101602;28;20233;-84
2023/04/28 09:47:35;;;;;;;8.33;8.13;;;10.50;99.90;;;;;;5105342;28;20225;-85
2023/04/28 09:50:08;;;;;;;8.20;8.00;;;10.40;99.90;;;;;;5105207;28;20316;-84
2023/04/28 09:52:36;;;;;;;8.27;8.07;;;10.50;99.90;;;;;;5104839;28;20232;-85
2023/04/28 09:55:06;;;;;;;8.20;8.00;;;10.50;99.90;;;;;;5088335;28;20222;-86
2023/04/28 09:57:37;;;;;;;8.30;8.10;;;10.60;99.90;;;;;;5094950;28;20232;-84
2023/04/28 10:00:07;;;;;;;8.30;8.10;;;10.60;99.90;;;;;;5102198;28;20317;-84
2023/04/28 10:02:37;;;;;;;8.27;8.07;;;10.60;99.90;;;;;;5101917;28;20229;-83
2023/04/28 10:05:08;;;;;;;8.30;8.10;;;10.60;99.90;;;;;;5104107;28;20229;-84
2023/04/28 10:07:36;;;;;;;7.90;7.70;;;10.60;99.90;;;;;;5117564;28;20230;-84
2023/04/28 10:10:05;;;;;;;8.20;8.00;;;10.70;99.90;;;;;;5107769;28;20301;-84
2023/04/28 10:12:33;;;;;;;8.23;8.03;;;10.70;99.90;;;;;;5101806;28;20275;-85
2023/04/28 10:15:01;;;;;;;8.10;7.90;;;10.70;99.90;;;;;;5102478;28;20237;-85
2023/04/28 10:17:29;;;;;;;8.10;7.90;;;10.70;99.90;;;;;;5108623;28;20225;-83
2023/04/28 10:19:57;;;;;;;8.50;8.30;;;10.80;99.90;;;;;;5113754;28;20265;-84
2023/04/28 10:22:53;;;;;;;8.37;8.17;;;10.80;99.90;;;;;;5113372;28;20229;-84
2023/04/28 10:25:32;;;;;;;8.50;8.30;;;10.80;99.90;;;;;;5093141;28;20226;-85
2023/04/28 10:28:01;;;;;;;8.57;8.37;;;10.90;99.90;;;;;;5082224;28;20292;-85
2023/04/28 10:30:29;;;;;;;8.40;8.20;;;11.00;99.90;;;;;;5082225;28;20240;-85
2023/04/28 10:33:25;;;;;;;8.60;8.40;;;11.10;99.90;;;;;;5094393;28;20293;-85
2023/04/28 10:35:53;;;;;;;8.37;8.17;;;11.20;99.90;;;;;;5082823;28;20317;-85
2023/04/28 10:38:28;;;;;;;8.50;8.30;;;11.30;99.90;;;;;;5101392;28;20233;-85
2023/04/28 10:41:00;;;;;;;8.90;8.60;;;11.40;99.90;;;;;;5102981;28;21071;-85
2023/04/28 10:43:38;;;;;;;8.60;8.40;;;11.60;99.90;;;;;;5102689;28;20302;-85
2023/04/28 10:46:08;;;;;;;8.57;8.37;;;11.70;99.90;;;;;;5084195;28;20241;-85
2023/04/28 10:49:07;;;;;;;8.67;8.47;;;11.80;99.90;;;;;;5081265;28;20232;-85
2023/04/28 10:51:36;;;;;;;8.33;8.13;;;11.80;99.90;;;;;;5081514;28;20240;-84
2023/04/28 10:54:28;;;;;;;8.50;8.30;;;12.00;99.90;;;;;;5081851;28;20229;-85
2023/04/28 10:57:24;;;;;;;8.60;8.40;;;12.00;99.90;;;;;;5092269;28;20226;-83
2023/04/28 11:10:23;;;;;;;8.50;8.30;;;12.40;99.90;;;;;;5059945;28;20409;-86
2023/04/28 11:17:06;;;;;;;8.80;8.60;;;12.60;99.90;;;;;;5061922;28;20249;-88
2023/04/28 11:19:48;;;;;;;8.37;8.17;;;12.60;99.90;;;;;;5004110;28;20293;-88
2023/04/28 11:22:33;;;;;;;8.43;8.23;;;12.70;99.90;;;;;;5063808;28;20246;-88
2023/04/28 11:28:17;;;;;;;8.47;8.27;;;12.80;99.90;;;;;;5066747;28;20261;-84
2023/04/28 11:30:45;;;;;;;9.03;8.73;;;12.90;99.90;;;;;;5079696;28;20229;-85
2023/04/28 11:33:16;;;;;;;8.50;8.30;;;12.90;99.90;;;;;;5080073;28;20211;-85
2023/04/28 11:35:45;;;;;;;9.00;8.70;;;13.00;99.90;;;;;;5081084;28;20222;-84
2023/04/28 11:38:13;;;;;;;8.70;8.50;;;13.00;99.90;;;;;;5079736;28;20230;-84
2023/04/28 11:41:03;;;;;;;8.60;8.40;;;13.00;99.90;;;;;;5080469;28;20281;-84
2023/04/28 11:43:35;;;;;;;8.50;8.30;;;13.10;99.90;;;;;;5081248;28;20218;-84
2023/04/28 11:46:03;;;;;;;8.20;8.00;;;13.20;99.90;;;;;;5081393;28;20215;-84
2023/04/28 11:48:40;;;;;;;8.50;8.30;;;13.40;99.90;;;;;;5081505;28;20214;-85
2023/04/28 11:51:09;;;;;;;8.60;8.40;;;13.50;99.90;;;;;;5080891;28;20262;-85
2023/04/28 11:53:48;;;;;;;9.00;8.70;;;13.50;99.90;;;;;;5080080;28;20223;-85
2023/04/28 11:56:18;;;;;;;9.00;8.70;;;13.60;99.90;;;;;;5061069;28;20239;-85
2023/04/28 11:59:07;;;;;;;9.00;8.70;;;13.70;99.90;;;;;;5069411;28;20223;-85
2023/04/28 12:01:52;;;;;;;9.10;8.80;;;13.70;99.90;;;;;;5081351;28;20249;-87
2023/04/28 12:04:34;;;;;;;9.40;9.10;;;13.70;99.90;;;;;;5081193;28;20226;-86
2023/04/28 12:07:10;;;;;;;9.20;8.90;;;13.70;99.90;;;;;;5081548;28;20202;-87
2023/04/28 12:09:50;;;;;;;9.03;8.73;;;13.80;99.90;;;;;;5080850;28;20242;-87
2023/04/28 12:12:34;;;;;;;9.30;9.00;;;13.80;99.90;;;;;;5080963;28;20206;-88
2023/04/28 12:15:11;;;;;;;9.30;9.00;;;14.00;99.90;;;;;;5073337;28;20277;-88
2023/04/28 12:17:52;;;;;;;9.67;9.37;;;14.20;99.90;;;;;;5061526;28;20226;-88
2023/04/28 12:20:39;;;;;;;9.40;9.10;;;14.20;99.90;;;;;;5062079;28;20234;-88
2023/04/28 12:23:14;;;;;;;9.70;9.40;;;14.30;99.90;;;;;;5066678;28;20218;-88
2023/04/28 12:25:47;;;;;;;9.48;9.18;;;14.40;99.90;;;;;;5075969;28;20274;-88
2023/04/28 12:28:15;;;;;;;9.60;9.30;;;14.50;99.90;;;;;;5061874;28;20286;-88
2023/04/28 12:30:45;;;;;;;9.80;9.50;;;14.50;99.90;;;;;;5062390;28;20308;-88
2023/04/28 12:36:07;;;;;;;9.67;9.37;;;14.60;99.90;;;;;;5064925;28;20234;-88
2023/04/28 12:38:48;;;;;;;9.60;9.30;;;14.70;99.90;;;;;;5064759;28;20234;-88
2023/04/28 12:41:16;;;;;;;9.50;9.20;;;14.70;99.90;;;;;;5071449;28;20238;-88
2023/04/28 12:43:44;;;;;;;9.60;9.30;;;14.80;99.90;;;;;;5076932;28;20230;-88
2023/04/28 12:46:23;;;;;;;10.27;9.98;;;15.00;99.90;;;;;;5074749;28;20262;-88
2023/04/28 12:48:52;;;;;;;10.18;9.88;;;15.10;99.90;;;;;;5067456;28;20261;-88
2023/04/28 12:51:22;;;;;;;9.82;9.52;;;15.40;99.90;;;;;;5063116;28;20242;-88
2023/04/28 12:53:51;;;;;;;10.45;10.15;;;15.70;99.90;;;;;;5065765;28;20256;-88
2023/04/28 12:56:22;;;;;;;10.57;10.27;;;15.80;99.90;;;;;;5061591;28;20223;-88
2023/04/28 12:58:51;;;;;;;10.40;10.10;;;15.90;99.90;;;;;;5064974;28;20242;-89
2023/04/28 13:01:28;;;;;;;10.55;10.25;;;16.00;99.90;;;;;;5060754;28;20239;-89
2023/04/28 13:03:57;;;;;;;10.40;10.10;;;15.90;99.90;;;;;;5059746;28;20246;-88
2023/04/28 13:06:27;;;;;;;10.27;9.98;;;15.90;99.90;;;;;;5059818;28;20234;-87
2023/04/28 13:09:06;;;;;;;10.02;9.73;;;15.80;99.90;;;;;;5059812;28;20290;-89
2023/04/28 13:11:37;;;;;;;9.70;9.40;;;15.80;99.90;;;;;;5060908;28;20238;-88
2023/04/28 13:14:23;;;;;;;9.63;9.32;;;15.80;99.90;;;;;;5061589;28;20250;-88
2023/04/28 13:18:09;;;;;;;9.73;9.43;;;15.90;99.90;;;;;;5058318;28;20219;-91
2023/04/28 13:20:43;;;;;;;9.90;9.60;;;16.10;99.90;;;;;;4984397;28;20239;-89
2023/04/28 13:23:11;;;;;;;9.70;9.40;;;16.10;99.90;;;;;;5059249;28;20285;-89
2023/04/28 13:25:41;;;;;;;9.52;9.23;;;16.00;99.90;;;;;;5061477;28;20231;-90
2023/04/28 13:28:11;;;;;;;9.80;9.50;;;16.10;99.90;;;;;;5059568;28;20231;-89
2023/04/28 13:30:46;;;;;;;9.77;9.48;;;16.10;99.90;;;;;;5052349;28;20334;-89
2023/04/28 13:33:29;;;;;;;10.10;9.80;;;16.10;99.90;;;;;;5058844;28;20266;-90
2023/04/28 13:39:01;;;;;;;10.00;9.70;;;16.10;99.90;;;;;;5056194;28;20270;-89
2023/04/28 13:45:25;;;;;;;10.23;9.93;;;16.20;99.90;;;;;;5040510;28;20243;-91
2023/04/28 13:48:15;;;;;;;10.20;9.90;;;16.30;99.90;;;;;;5064608;28;20227;-90
2023/04/28 13:56:54;;;;;;;;;;;;;;;;;;;;;
2023/04/28 14:02:57;;;;;;;9.85;9.55;;;16.00;99.90;;;;;;5067278;28;20218;-90
2023/04/28 14:05:34;;;;;;;10.30;10.00;;;16.10;99.90;;;;;;5067929;28;20223;-89
2023/04/28 14:10:50;;;;;;;10.02;9.73;;;16.30;99.90;;;;;;5065977;28;20254;-91
2023/04/28 14:13:35;;;;;;;9.93;9.63;;;16.30;99.90;;;;;;5064391;28;20226;-91
2023/04/28 14:16:07;;;;;;;10.20;9.90;;;16.40;99.90;;;;;;5064632;28;20245;-90
2023/04/28 14:19:00;;;;;;;10.20;9.90;;;16.40;99.90;;;;;;5063192;28;20338;-90
2023/04/28 14:27:24;;;;;;;10.10;9.80;;;16.30;99.90;;;;;;5058750;28;20240;-89
2023/04/28 14:30:20;;;;;;;10.10;9.80;;;16.30;99.90;;;;;;5061943;28;20230;-88
2023/04/28 14:36:47;;;;;;;9.80;9.50;;;16.20;99.90;;;;;;5040135;28;20255;-90
2023/04/28 14:39:40;;;;;;;10.40;10.10;;;16.20;99.90;;;;;;5051840;28;20242;-91
2023/04/28 14:42:37;;;;;;;10.20;9.90;;;16.10;99.90;;;;;;5078130;28;20266;-91
2023/04/28 14:45:14;;;;;;;9.98;9.68;;;16.00;99.90;;;;;;5064857;28;20285;-89